Time;durP1;ratioP1;P1;durP2;ratioP2;P2;SDS_P1;SDS_P2;PMS_P1;PMS_P2;Temp;Humidity;BMP_temperature;BMP_pressure;BME280_temperature;BME280_humidity;BME280_pressure;Samples;Min_cycle;Max_cycle;Signal;HPM_P1;HPM_P2
2021/05/30 00:00:09;;;;;;;4.00;2.75;;;;;;;;;;5059292;28;20028;-80
2021/05/30 00:02:54;;;;;;;5.68;3.40;;;;;;;;;;5064031;28;20056;-80
2021/05/30 00:05:39;;;;;;;5.30;2.83;;;;;;;;;;5044967;28;20092;-80
2021/05/30 00:08:24;;;;;;;4.28;2.50;;;;;;;;;;5047583;28;20305;-81
2021/05/30 00:11:11;;;;;;;5.22;3.20;;;;;;;;;;5045911;28;20394;-80
2021/05/30 00:13:59;;;;;;;5.85;3.30;;;;;;;;;;5053783;28;20464;-81
2021/05/30 00:16:45;;;;;;;7.47;3.05;;;;;;;;;;5046317;28;20029;-80
2021/05/30 00:19:30;;;;;;;5.38;3.45;;;;;;;;;;5043645;28;20025;-81
2021/05/30 00:22:15;;;;;;;5.32;2.97;;;;;;;;;;5042832;28;20466;-79
2021/05/30 00:25:00;;;;;;;6.18;2.92;;;;;;;;;;5040913;28;20025;-81
2021/05/30 00:27:46;;;;;;;5.75;2.78;;;;;;;;;;5042120;28;20815;-80
2021/05/30 00:30:31;;;;;;;5.15;2.83;;;;;;;;;;5045106;28;20025;-82
2021/05/30 00:33:16;;;;;;;6.28;2.80;;;;;;;;;;5043412;28;20506;-82
2021/05/30 00:36:02;;;;;;;5.32;3.03;;;;;;;;;;5043744;28;20054;-82
2021/05/30 00:38:47;;;;;;;3.67;2.55;;;;;;;;;;5040021;28;20017;-82
2021/05/30 00:41:32;;;;;;;5.20;2.78;;;;;;;;;;5041430;28;20796;-82
2021/05/30 00:44:22;;;;;;;5.20;3.17;;;;;;;;;;5047589;28;20029;-82
2021/05/30 00:47:07;;;;;;;7.20;3.67;;;;;;;;;;5044266;28;20082;-82
2021/05/30 00:49:52;;;;;;;13.88;3.75;;;;;;;;;;5029158;28;20093;-82
2021/05/30 00:52:41;;;;;;;5.25;3.40;;;;;;;;;;5047214;28;20484;-82
2021/05/30 00:55:27;;;;;;;5.82;3.25;;;;;;;;;;5035974;28;20600;-82
2021/05/30 00:58:13;;;;;;;5.60;3.03;;;;;;;;;;5047773;28;20071;-82
2021/05/30 01:00:58;;;;;;;6.85;2.90;;;;;;;;;;5047703;28;20579;-82
2021/05/30 01:03:43;;;;;;;5.05;3.22;;;;;;;;;;5043790;28;20060;-81
2021/05/30 01:06:29;;;;;;;7.13;2.92;;;;;;;;;;5048387;28;20439;-81
2021/05/30 01:09:14;;;;;;;4.70;2.92;;;;;;;;;;5043259;28;20032;-82
2021/05/30 01:12:02;;;;;;;8.13;3.13;;;;;;;;;;5043959;28;20021;-82
2021/05/30 01:14:48;;;;;;;7.70;2.90;;;;;;;;;;5044722;28;20017;-81
2021/05/30 01:17:33;;;;;;;6.35;2.95;;;;;;;;;;5049918;28;20028;-81
2021/05/30 01:20:19;;;;;;;5.38;2.72;;;;;;;;;;5045345;28;20059;-81
2021/05/30 01:23:05;;;;;;;5.13;2.97;;;;;;;;;;5041411;28;20111;-82
2021/05/30 01:25:51;;;;;;;6.35;2.70;;;;;;;;;;5042820;28;20388;-81
2021/05/30 01:28:36;;;;;;;5.07;2.63;;;;;;;;;;5044672;28;20478;-82
2021/05/30 01:31:22;;;;;;;4.75;2.60;;;;;;;;;;5047887;28;20025;-82
2021/05/30 01:34:08;;;;;;;3.75;2.75;;;;;;;;;;5045476;28;20045;-82
2021/05/30 01:36:53;;;;;;;4.93;2.75;;;;;;;;;;5039195;28;20032;-82
2021/05/30 01:39:38;;;;;;;3.45;2.25;;;;;;;;;;5039460;28;20025;-81
2021/05/30 01:42:23;;;;;;;3.72;2.80;;;;;;;;;;5047657;28;20210;-82
2021/05/30 01:45:09;;;;;;;3.60;2.13;;;;;;;;;;5043799;28;20490;-82
2021/05/30 01:47:55;;;;;;;3.45;2.22;;;;;;;;;;5048261;28;20037;-82
2021/05/30 01:50:40;;;;;;;5.45;2.83;;;;;;;;;;5045357;28;20055;-83
2021/05/30 01:53:34;;;;;;;6.68;3.22;;;;;;;;;;5056956;28;20032;-82
2021/05/30 01:59:23;;;;;;;5.57;3.47;;;;;;;;;;5052191;28;20043;-82
2021/05/30 02:02:09;;;;;;;6.13;2.90;;;;;;;;;;5059976;28;20029;-82
2021/05/30 02:04:54;;;;;;;4.90;2.65;;;;;;;;;;5054965;28;20142;-82
2021/05/30 02:07:41;;;;;;;3.83;2.85;;;;;;;;;;5052010;28;20499;-83
2021/05/30 02:10:27;;;;;;;5.63;2.70;;;;;;;;;;5038332;28;20033;-82
2021/05/30 02:13:12;;;;;;;5.82;2.50;;;;;;;;;;5056632;28;20506;-83
2021/05/30 02:15:57;;;;;;;5.97;2.95;;;;;;;;;;5051136;28;20036;-82
2021/05/30 02:18:43;;;;;;;3.92;2.58;;;;;;;;;;5053983;28;20020;-83
2021/05/30 02:21:37;;;;;;;4.10;2.53;;;;;;;;;;5052040;28;20063;-82
2021/05/30 02:24:23;;;;;;;4.47;2.40;;;;;;;;;;5059678;28;20028;-82
2021/05/30 02:27:08;;;;;;;4.00;2.60;;;;;;;;;;5047937;28;20040;-82
2021/05/30 02:29:53;;;;;;;5.28;2.63;;;;;;;;;;5053672;28;20032;-82
2021/05/30 02:32:38;;;;;;;4.18;2.60;;;;;;;;;;5040136;28;20035;-82
2021/05/30 02:35:24;;;;;;;5.30;2.45;;;;;;;;;;5049435;28;20082;-83
2021/05/30 02:38:09;;;;;;;5.63;2.95;;;;;;;;;;5054330;28;20446;-82
2021/05/30 02:40:54;;;;;;;3.55;2.47;;;;;;;;;;5048334;28;20426;-82
2021/05/30 02:43:39;;;;;;;4.15;2.63;;;;;;;;;;5054871;28;20103;-81
2021/05/30 02:46:25;;;;;;;3.13;2.63;;;;;;;;;;5054715;28;20021;-81
2021/05/30 02:49:10;;;;;;;3.60;2.70;;;;;;;;;;5053073;28;20020;-80
2021/05/30 02:51:55;;;;;;;3.83;2.38;;;;;;;;;;5049210;28;20047;-81
2021/05/30 02:54:41;;;;;;;4.72;2.50;;;;;;;;;;5055309;28;20471;-82
2021/05/30 02:57:26;;;;;;;4.45;3.15;;;;;;;;;;5049915;28;20028;-80
2021/05/30 03:00:12;;;;;;;4.00;2.75;;;;;;;;;;5038916;28;20032;-81
2021/05/30 03:02:57;;;;;;;6.07;2.88;;;;;;;;;;5052884;28;20596;-81
2021/05/30 03:05:42;;;;;;;4.40;2.70;;;;;;;;;;5052627;28;20373;-81
2021/05/30 03:08:27;;;;;;;4.25;2.58;;;;;;;;;;5051417;28;20036;-82
2021/05/30 03:11:12;;;;;;;4.43;3.00;;;;;;;;;;5054158;28;20026;-83
2021/05/30 03:13:58;;;;;;;4.05;2.72;;;;;;;;;;5049444;28;20029;-82
2021/05/30 03:16:43;;;;;;;7.45;2.97;;;;;;;;;;5055014;28;20029;-82
2021/05/30 03:19:28;;;;;;;4.07;2.63;;;;;;;;;;5051197;28;20092;-81
2021/05/30 03:22:13;;;;;;;4.60;2.60;;;;;;;;;;5055127;28;20029;-81
2021/05/30 03:24:59;;;;;;;5.38;2.60;;;;;;;;;;5048828;28;20032;-80
2021/05/30 03:27:44;;;;;;;3.65;3.13;;;;;;;;;;5046105;28;20024;-79
2021/05/30 03:30:29;;;;;;;4.30;2.90;;;;;;;;;;5051390;28;20047;-79
2021/05/30 03:33:15;;;;;;;4.55;3.03;;;;;;;;;;5054898;28;20102;-79
2021/05/30 03:36:03;;;;;;;6.70;2.83;;;;;;;;;;5054553;28;20024;-82
2021/05/30 03:38:49;;;;;;;4.78;2.55;;;;;;;;;;5050948;28;20047;-79
2021/05/30 03:41:37;;;;;;;4.15;3.22;;;;;;;;;;5052366;28;20445;-83
2021/05/30 03:44:22;;;;;;;3.92;2.90;;;;;;;;;;5043548;28;20028;-81
2021/05/30 03:47:11;;;;;;;6.97;3.13;;;;;;;;;;5044256;28;20024;-81
2021/05/30 03:49:57;;;;;;;5.75;3.03;;;;;;;;;;5056907;28;20032;-81
2021/05/30 03:52:43;;;;;;;2.92;2.40;;;;;;;;;;5047772;28;20052;-82
2021/05/30 03:55:28;;;;;;;5.75;2.97;;;;;;;;;;5032384;28;20024;-81
2021/05/30 03:58:14;;;;;;;4.90;2.67;;;;;;;;;;5053221;28;20024;-80
2021/05/30 04:00:59;;;;;;;6.43;3.45;;;;;;;;;;5051708;28;20024;-79
2021/05/30 04:03:46;;;;;;;3.55;2.70;;;;;;;;;;5053628;28;20020;-79
2021/05/30 04:06:31;;;;;;;4.35;2.60;;;;;;;;;;5051741;28;20027;-81
2021/05/30 04:09:16;;;;;;;9.52;3.50;;;;;;;;;;5047203;28;20023;-80
2021/05/30 04:12:01;;;;;;;3.70;2.53;;;;;;;;;;5057324;28;20047;-80
2021/05/30 04:14:47;;;;;;;6.35;3.38;;;;;;;;;;5047812;28;20097;-80
2021/05/30 04:17:32;;;;;;;5.03;3.03;;;;;;;;;;5051329;28;20060;-80
2021/05/30 04:20:17;;;;;;;3.92;2.60;;;;;;;;;;5051965;28;20020;-78
2021/05/30 04:23:03;;;;;;;4.85;3.35;;;;;;;;;;5053421;28;20043;-79
2021/05/30 04:25:48;;;;;;;4.78;2.95;;;;;;;;;;5054436;28;20037;-80
2021/05/30 04:28:33;;;;;;;5.28;3.60;;;;;;;;;;5053138;28;20024;-78
2021/05/30 04:31:19;;;;;;;5.35;2.67;;;;;;;;;;5051761;28;20032;-80
2021/05/30 04:34:04;;;;;;;4.40;2.72;;;;;;;;;;5050222;28;20021;-80
2021/05/30 04:36:49;;;;;;;4.85;2.50;;;;;;;;;;5047640;28;20099;-80
2021/05/30 04:39:34;;;;;;;6.03;3.13;;;;;;;;;;5047211;28;20615;-80
2021/05/30 04:42:20;;;;;;;4.45;2.70;;;;;;;;;;5057814;28;20028;-80
2021/05/30 04:45:06;;;;;;;6.18;3.38;;;;;;;;;;5052530;28;20021;-80
2021/05/30 04:47:51;;;;;;;6.20;3.75;;;;;;;;;;5050950;28;20480;-80
2021/05/30 04:50:36;;;;;;;4.95;3.05;;;;;;;;;;5057414;28;20075;-80
2021/05/30 04:53:21;;;;;;;4.95;3.03;;;;;;;;;;5055432;28;20376;-79
2021/05/30 04:56:07;;;;;;;6.55;3.28;;;;;;;;;;5050908;28;20068;-79
2021/05/30 04:58:52;;;;;;;7.05;3.40;;;;;;;;;;5049052;28;20454;-79
2021/05/30 05:01:38;;;;;;;7.85;3.38;;;;;;;;;;5047199;28;20826;-79
2021/05/30 05:04:23;;;;;;;4.05;3.05;;;;;;;;;;5055144;28;20020;-79
2021/05/30 05:07:08;;;;;;;5.22;3.38;;;;;;;;;;5050846;28;20384;-79
2021/05/30 05:09:53;;;;;;;5.03;3.58;;;;;;;;;;5049847;28;20043;-80
2021/05/30 05:12:39;;;;;;;4.90;3.22;;;;;;;;;;5048784;28;20539;-80
2021/05/30 05:15:24;;;;;;;5.15;3.13;;;;;;;;;;5051382;28;20074;-80
2021/05/30 05:18:10;;;;;;;7.43;3.30;;;;;;;;;;5055300;28;20023;-80
2021/05/30 05:20:55;;;;;;;5.90;3.70;;;;;;;;;;5048740;28;20232;-81
2021/05/30 05:23:41;;;;;;;5.20;3.28;;;;;;;;;;5050231;28;20021;-80
2021/05/30 05:26:26;;;;;;;3.78;2.88;;;;;;;;;;5050181;28;20162;-80
2021/05/30 05:29:11;;;;;;;12.38;3.75;;;;;;;;;;5056673;28;20047;-80
2021/05/30 05:31:56;;;;;;;5.20;2.83;;;;;;;;;;5053481;28;20600;-81
2021/05/30 05:34:41;;;;;;;3.97;2.92;;;;;;;;;;5057701;28;20036;-79
2021/05/30 05:37:26;;;;;;;5.10;2.70;;;;;;;;;;5060217;28;20091;-79
2021/05/30 05:40:12;;;;;;;6.32;3.17;;;;;;;;;;5056358;28;20024;-80
2021/05/30 05:42:57;;;;;;;5.72;3.53;;;;;;;;;;5059059;28;20596;-81
2021/05/30 05:45:43;;;;;;;4.90;3.22;;;;;;;;;;5062820;28;20040;-81
2021/05/30 05:48:28;;;;;;;7.28;4.20;;;;;;;;;;5052289;28;20344;-80
2021/05/30 05:51:13;;;;;;;8.48;4.63;;;;;;;;;;5054403;28;20492;-79
2021/05/30 05:53:58;;;;;;;5.22;3.70;;;;;;;;;;5052101;28;20428;-79
2021/05/30 05:56:44;;;;;;;5.57;3.80;;;;;;;;;;5055872;28;20391;-79
2021/05/30 05:59:29;;;;;;;4.97;3.60;;;;;;;;;;5049833;28;20046;-79
2021/05/30 06:02:14;;;;;;;5.30;3.92;;;;;;;;;;5060254;28;20042;-80
2021/05/30 06:05:00;;;;;;;6.57;3.40;;;;;;;;;;5052271;28;20020;-80
2021/05/30 06:07:46;;;;;;;7.15;4.60;;;;;;;;;;5058986;28;20050;-79
2021/05/30 06:10:31;;;;;;;5.32;3.72;;;;;;;;;;5052529;28;20443;-80
2021/05/30 06:13:16;;;;;;;5.60;3.30;;;;;;;;;;5055155;28;20043;-79
2021/05/30 06:16:05;;;;;;;5.80;3.45;;;;;;;;;;5053372;28;20043;-80
2021/05/30 06:18:50;;;;;;;4.25;3.40;;;;;;;;;;5049132;28;20025;-80
2021/05/30 06:21:35;;;;;;;5.28;3.58;;;;;;;;;;5055807;28;20035;-79
2021/05/30 06:24:21;;;;;;;6.68;3.70;;;;;;;;;;5055159;28;20025;-84
2021/05/30 06:27:06;;;;;;;4.18;3.42;;;;;;;;;;5059942;28;20421;-83
2021/05/30 06:29:51;;;;;;;5.07;3.35;;;;;;;;;;5051335;28;20056;-83
2021/05/30 06:32:37;;;;;;;6.10;3.45;;;;;;;;;;5057093;28;20028;-83
2021/05/30 06:35:22;;;;;;;4.82;3.72;;;;;;;;;;5038754;28;20009;-83
2021/05/30 06:38:08;;;;;;;4.78;3.13;;;;;;;;;;5040790;28;20035;-83
2021/05/30 06:40:53;;;;;;;7.32;3.80;;;;;;;;;;5049508;28;20023;-82
2021/05/30 06:43:38;;;;;;;4.60;3.47;;;;;;;;;;5051981;28;20106;-82
2021/05/30 06:46:24;;;;;;;5.50;3.15;;;;;;;;;;5052144;28;20028;-82
2021/05/30 06:49:09;;;;;;;6.32;3.72;;;;;;;;;;5058572;28;20091;-83
2021/05/30 06:51:54;;;;;;;4.72;3.15;;;;;;;;;;5050358;28;20116;-83
2021/05/30 06:54:40;;;;;;;5.03;3.25;;;;;;;;;;5054826;28;20063;-82
2021/05/30 06:57:25;;;;;;;9.30;7.40;;;;;;;;;;5033000;28;20031;-81
2021/05/30 07:00:11;;;;;;;7.43;3.50;;;;;;;;;;5041358;28;20446;-82
2021/05/30 07:02:56;;;;;;;3.83;2.90;;;;;;;;;;5053840;28;20512;-82
2021/05/30 07:05:41;;;;;;;19.70;7.32;;;;;;;;;;5050274;28;20028;-84
2021/05/30 07:08:26;;;;;;;12.45;5.40;;;;;;;;;;5053698;28;20020;-82
2021/05/30 07:11:12;;;;;;;6.32;3.45;;;;;;;;;;5055171;28;20024;-78
2021/05/30 07:13:58;;;;;;;6.28;3.33;;;;;;;;;;5049599;28;20024;-79
2021/05/30 07:16:43;;;;;;;7.38;3.30;;;;;;;;;;5052324;28;20374;-89
2021/05/30 07:19:28;;;;;;;5.78;3.15;;;;;;;;;;5057224;28;20025;-86
2021/05/30 07:22:14;;;;;;;5.97;3.90;;;;;;;;;;5044977;28;20241;-88
2021/05/30 07:24:59;;;;;;;5.95;3.70;;;;;;;;;;5054908;28;20031;-85
2021/05/30 07:27:44;;;;;;;8.23;4.07;;;;;;;;;;5049448;28;20036;-84
2021/05/30 07:30:30;;;;;;;8.27;4.88;;;;;;;;;;5054663;28;20078;-81
2021/05/30 07:33:15;;;;;;;5.03;3.13;;;;;;;;;;5057461;28;20424;-83
2021/05/30 07:36:00;;;;;;;6.25;3.47;;;;;;;;;;5056313;28;20111;-83
2021/05/30 07:38:45;;;;;;;6.47;3.38;;;;;;;;;;5051839;28;20017;-82
2021/05/30 07:41:32;;;;;;;6.45;3.40;;;;;;;;;;5052653;28;20066;-86
2021/05/30 07:44:17;;;;;;;6.22;3.47;;;;;;;;;;5052611;28;20016;-84
2021/05/30 07:47:03;;;;;;;5.18;3.58;;;;;;;;;;5051406;28;20051;-85
2021/05/30 07:49:48;;;;;;;8.50;3.58;;;;;;;;;;5055435;28;20028;-85
2021/05/30 07:52:33;;;;;;;5.35;3.30;;;;;;;;;;5050967;28;20418;-82
2021/05/30 07:55:18;;;;;;;15.15;12.48;;;;;;;;;;5056921;28;20025;-82
2021/05/30 07:58:04;;;;;;;7.75;3.85;;;;;;;;;;5055436;28;20116;-80
2021/05/30 08:00:49;;;;;;;6.47;3.50;;;;;;;;;;5046797;28;20012;-80
2021/05/30 08:03:34;;;;;;;7.80;3.50;;;;;;;;;;5052619;28;20425;-80
2021/05/30 08:06:20;;;;;;;6.60;3.70;;;;;;;;;;5055552;28;20016;-81
2021/05/30 08:09:05;;;;;;;5.97;3.50;;;;;;;;;;5051628;28;20024;-82
2021/05/30 08:11:51;;;;;;;4.32;2.85;;;;;;;;;;5051730;28;20497;-84
2021/05/30 08:14:36;;;;;;;5.13;2.92;;;;;;;;;;5049393;28;20110;-80
2021/05/30 08:17:21;;;;;;;6.82;4.20;;;;;;;;;;5057799;28;20437;-81
2021/05/30 08:20:08;;;;;;;13.18;7.55;;;;;;;;;;5052266;28;20099;-87
2021/05/30 08:22:53;;;;;;;3.85;2.60;;;;;;;;;;5049994;28;20024;-88
2021/05/30 08:25:38;;;;;;;4.97;3.20;;;;;;;;;;5050280;28;20024;-82
2021/05/30 08:28:24;;;;;;;6.15;2.60;;;;;;;;;;5039919;28;20036;-84
2021/05/30 08:31:09;;;;;;;10.32;3.47;;;;;;;;;;5055862;28;20389;-85
2021/05/30 08:33:54;;;;;;;3.47;2.50;;;;;;;;;;5058923;28;20033;-82
2021/05/30 08:36:40;;;;;;;4.50;2.60;;;;;;;;;;5048439;28;20054;-87
2021/05/30 08:39:28;;;;;;;5.10;2.90;;;;;;;;;;5059029;28;20029;-86
2021/05/30 08:42:14;;;;;;;3.00;2.20;;;;;;;;;;5043095;28;20116;-88
2021/05/30 08:44:59;;;;;;;3.00;2.13;;;;;;;;;;5048689;28;20043;-88
2021/05/30 08:47:44;;;;;;;17.67;2.38;;;;;;;;;;5055405;28;20117;-87
2021/05/30 08:50:30;;;;;;;4.40;2.47;;;;;;;;;;5036967;28;20463;-87
2021/05/30 08:53:15;;;;;;;3.30;2.20;;;;;;;;;;5055923;28;20639;-87
2021/05/30 08:56:00;;;;;;;5.20;3.17;;;;;;;;;;5050956;28;20017;-87
2021/05/30 08:58:49;;;;;;;7.72;3.78;;;;;;;;;;5057067;28;20024;-85
2021/05/30 09:01:41;;;;;;;4.10;2.10;;;;;;;;;;5056524;28;20607;-86
2021/05/30 09:04:37;;;;;;;4.03;2.50;;;;;;;;;;5052786;28;20021;-85
2021/05/30 09:07:41;;;;;;;2.42;2.00;;;;;;;;;;5053727;28;20025;-84
2021/05/30 09:10:29;;;;;;;2.97;2.25;;;;;;;;;;5049170;28;20142;-86
2021/05/30 09:13:16;;;;;;;4.25;2.35;;;;;;;;;;5052038;28;20052;-84
2021/05/30 09:18:47;;;;;;;4.85;2.17;;;;;;;;;;5051689;28;20020;-85
2021/05/30 09:21:32;;;;;;;4.28;1.95;;;;;;;;;;5047392;28;20494;-87
2021/05/30 09:24:17;;;;;;;5.22;2.40;;;;;;;;;;5053743;28;20020;-88
2021/05/30 09:27:09;;;;;;;5.57;2.55;;;;;;;;;;5049313;28;20017;-85
2021/05/30 09:30:13;;;;;;;4.43;2.28;;;;;;;;;;5058709;28;20020;-85
2021/05/30 09:33:06;;;;;;;4.32;2.45;;;;;;;;;;5051483;28;20089;-87
2021/05/30 09:35:52;;;;;;;4.38;3.08;;;;;;;;;;5056646;28;20134;-87
2021/05/30 09:38:38;;;;;;;5.32;2.70;;;;;;;;;;5048174;28;21360;-88
2021/05/30 09:41:24;;;;;;;4.82;3.17;;;;;;;;;;5055763;28;20036;-88
2021/05/30 09:44:09;;;;;;;4.65;3.00;;;;;;;;;;5048386;28;20020;-88
2021/05/30 09:46:54;;;;;;;6.05;3.50;;;;;;;;;;5056972;28;20072;-87
2021/05/30 09:50:06;;;;;;;3.30;2.38;;;;;;;;;;5057150;28;20050;-88
2021/05/30 09:52:52;;;;;;;3.38;2.42;;;;;;;;;;5040285;28;20144;-88
2021/05/30 09:55:37;;;;;;;7.03;2.90;;;;;;;;;;5056795;28;20078;-88
2021/05/30 09:58:24;;;;;;;5.55;2.60;;;;;;;;;;5060100;28;20021;-88
2021/05/30 10:01:09;;;;;;;3.80;2.78;;;;;;;;;;5044866;28;20107;-88
2021/05/30 10:03:55;;;;;;;6.97;2.42;;;;;;;;;;5049304;28;20020;-88
2021/05/30 10:06:44;;;;;;;5.22;2.72;;;;;;;;;;5043239;28;20020;-87
2021/05/30 10:09:30;;;;;;;3.20;2.38;;;;;;;;;;5063796;28;20023;-88
2021/05/30 10:12:15;;;;;;;4.35;2.47;;;;;;;;;;5056058;28;20086;-89
2021/05/30 10:15:01;;;;;;;4.75;2.42;;;;;;;;;;5054360;28;20027;-88
2021/05/30 10:17:46;;;;;;;4.38;2.60;;;;;;;;;;5047830;28;20384;-87
2021/05/30 10:20:32;;;;;;;3.75;2.63;;;;;;;;;;5056014;28;20020;-88
2021/05/30 10:23:18;;;;;;;4.25;2.25;;;;;;;;;;5057321;28;20024;-88
2021/05/30 10:26:22;;;;;;;3.53;2.50;;;;;;;;;;5054945;28;20020;-89
2021/05/30 10:29:12;;;;;;;5.47;2.70;;;;;;;;;;5057731;28;20020;-88
2021/05/30 10:32:13;;;;;;;5.00;2.85;;;;;;;;;;5058876;28;20021;-87
2021/05/30 10:35:07;;;;;;;8.75;5.07;;;;;;;;;;5053326;28;20125;-88
2021/05/30 10:37:54;;;;;;;4.90;2.80;;;;;;;;;;5056530;28;20031;-88
2021/05/30 10:40:40;;;;;;;6.35;3.85;;;;;;;;;;5049580;28;20028;-86
2021/05/30 10:43:29;;;;;;;4.97;2.90;;;;;;;;;;5055129;28;20062;-89
2021/05/30 10:46:14;;;;;;;4.80;3.20;;;;;;;;;;5061610;28;20028;-89
2021/05/30 10:49:07;;;;;;;5.03;3.25;;;;;;;;;;5057890;28;20103;-90
2021/05/30 10:51:52;;;;;;;7.32;3.67;;;;;;;;;;5051832;28;20044;-89
2021/05/30 10:54:38;;;;;;;5.47;3.70;;;;;;;;;;5057078;28;20071;-88
2021/05/30 10:57:36;;;;;;;4.13;2.67;;;;;;;;;;5076065;28;20029;-88
2021/05/30 11:00:21;;;;;;;3.05;2.30;;;;;;;;;;5056170;28;20043;-89
2021/05/30 11:03:13;;;;;;;5.85;3.42;;;;;;;;;;5045754;28;20028;-88
2021/05/30 11:05:58;;;;;;;3.38;2.58;;;;;;;;;;5041797;28;20482;-88
2021/05/30 11:08:44;;;;;;;4.40;3.03;;;;;;;;;;5052151;28;20028;-89
2021/05/30 11:11:30;;;;;;;10.70;6.95;;;;;;;;;;5056434;28;20056;-88
2021/05/30 11:14:17;;;;;;;11.43;7.75;;;;;;;;;;5056806;28;20108;-88
2021/05/30 11:17:03;;;;;;;7.78;3.72;;;;;;;;;;5054249;28;20016;-89
2021/05/30 11:19:55;;;;;;;7.05;3.60;;;;;;;;;;5060514;28;20047;-89
2021/05/30 11:22:50;;;;;;;6.35;2.75;;;;;;;;;;5058053;28;20032;-89
2021/05/30 11:25:38;;;;;;;5.38;3.20;;;;;;;;;;5052500;28;20474;-88
2021/05/30 11:28:25;;;;;;;5.50;2.92;;;;;;;;;;5060318;28;20051;-88
2021/05/30 11:31:10;;;;;;;4.63;2.28;;;;;;;;;;5053692;28;20024;-88
2021/05/30 11:34:01;;;;;;;5.50;2.72;;;;;;;;;;5046773;28;20143;-88
2021/05/30 11:36:47;;;;;;;2.78;2.38;;;;;;;;;;5055628;28;20048;-89
2021/05/30 11:39:40;;;;;;;3.63;2.60;;;;;;;;;;5057579;28;20098;-88
2021/05/30 11:42:26;;;;;;;3.85;2.75;;;;;;;;;;5053134;28;20016;-88
2021/05/30 11:45:28;;;;;;;4.15;2.30;;;;;;;;;;5064051;28;20074;-88
2021/05/30 11:48:13;;;;;;;4.32;2.60;;;;;;;;;;5056913;28;20047;-88
2021/05/30 11:50:59;;;;;;;4.78;2.30;;;;;;;;;;5039436;28;20430;-88
2021/05/30 11:53:44;;;;;;;4.97;3.33;;;;;;;;;;5053542;28;20094;-89
2021/05/30 11:56:36;;;;;;;5.78;3.28;;;;;;;;;;5062024;28;20537;-88
2021/05/30 11:59:28;;;;;;;5.28;2.53;;;;;;;;;;5049610;28;20028;-87
2021/05/30 12:02:26;;;;;;;4.15;3.03;;;;;;;;;;5051235;28;20021;-89
2021/05/30 12:05:16;;;;;;;5.47;2.60;;;;;;;;;;5057954;28;20047;-89
2021/05/30 12:08:17;;;;;;;5.15;2.42;;;;;;;;;;5053016;28;20029;-89
2021/05/30 12:11:03;;;;;;;4.07;2.22;;;;;;;;;;5050467;28;20598;-90
2021/05/30 12:13:48;;;;;;;4.68;2.88;;;;;;;;;;5059340;28;20122;-89
2021/05/30 12:16:34;;;;;;;3.40;2.10;;;;;;;;;;5059696;28;20115;-88
2021/05/30 12:19:19;;;;;;;3.55;2.25;;;;;;;;;;5058940;28;20067;-88
2021/05/30 12:22:05;;;;;;;8.18;2.42;;;;;;;;;;5058250;28;20028;-89
2021/05/30 12:24:50;;;;;;;7.70;2.40;;;;;;;;;;5042102;28;20020;-89
2021/05/30 12:27:35;;;;;;;4.75;2.63;;;;;;;;;;5062469;28;20374;-88
2021/05/30 12:30:21;;;;;;;5.43;2.40;;;;;;;;;;5066419;28;20020;-82
2021/05/30 12:33:06;;;;;;;6.75;2.25;;;;;;;;;;5058456;28;20031;-79
2021/05/30 12:35:53;;;;;;;3.28;1.98;;;;;;;;;;5049999;28;20023;-78
2021/05/30 12:38:38;;;;;;;3.83;2.40;;;;;;;;;;5048736;28;20025;-78
2021/05/30 12:41:28;;;;;;;6.05;2.53;;;;;;;;;;5052615;28;20027;-76
2021/05/30 12:44:15;;;;;;;6.95;2.83;;;;;;;;;;5049664;28;21439;-79
2021/05/30 12:47:03;;;;;;;5.32;2.78;;;;;;;;;;5054308;28;20494;-79
2021/05/30 12:49:56;;;;;;;4.50;2.47;;;;;;;;;;5048035;28;20035;-81
2021/05/30 12:53:01;;;;;;;4.05;2.40;;;;;;;;;;5027655;28;20103;-76
2021/05/30 12:55:46;;;;;;;6.45;2.38;;;;;;;;;;5024078;28;20028;-76
2021/05/30 12:58:32;;;;;;;4.25;2.03;;;;;;;;;;5032788;28;20033;-78
2021/05/30 13:01:22;;;;;;;4.40;2.25;;;;;;;;;;5021941;28;20021;-78
2021/05/30 13:04:07;;;;;;;;;;;;;;;;;;5020432;28;20017;-79
2021/05/30 13:07:03;;;;;;;5.97;2.80;;;;;;;;;;5020687;28;20274;-78
2021/05/30 13:09:52;;;;;;;3.75;2.28;;;;;;;;;;5024488;28;20045;-78
2021/05/30 13:12:39;;;;;;;5.88;2.67;;;;;;;;;;5024555;28;20025;-78
2021/05/30 13:15:26;;;;;;;3.92;2.50;;;;;;;;;;5028722;28;20163;-80
2021/05/30 13:18:11;;;;;;;4.07;2.55;;;;;;;;;;5026605;28;20424;-80
2021/05/30 13:20:57;;;;;;;6.20;3.08;;;;;;;;;;5023706;28;20466;-78
2021/05/30 13:23:42;;;;;;;4.32;3.03;;;;;;;;;;5028021;28;20040;-79
2021/05/30 13:26:27;;;;;;;5.88;2.67;;;;;;;;;;5022580;28;20040;-79
2021/05/30 13:29:19;;;;;;;7.07;2.75;;;;;;;;;;5025242;28;20021;-80
2021/05/30 13:32:05;;;;;;;3.72;2.45;;;;;;;;;;5022894;28;20025;-79
2021/05/30 13:34:50;;;;;;;4.80;2.38;;;;;;;;;;5026988;28;20086;-86
2021/05/30 13:37:35;;;;;;;5.18;2.70;;;;;;;;;;5025437;28;20018;-93
2021/05/30 13:40:21;;;;;;;4.10;2.75;;;;;;;;;;5016392;28;20029;-93
2021/05/30 13:43:07;;;;;;;3.30;2.55;;;;;;;;;;5024898;28;20329;-91
2021/05/30 13:45:52;;;;;;;6.43;3.30;;;;;;;;;;5038905;28;20032;-91
2021/05/30 13:48:38;;;;;;;3.67;2.67;;;;;;;;;;5030093;28;20033;-92
2021/05/30 13:51:23;;;;;;;4.40;3.05;;;;;;;;;;5032368;28;20085;-92
2021/05/30 13:54:09;;;;;;;3.63;2.58;;;;;;;;;;5033144;28;20057;-93
2021/05/30 13:56:54;;;;;;;4.65;2.50;;;;;;;;;;5032848;28;20372;-92
2021/05/30 13:59:40;;;;;;;4.35;3.00;;;;;;;;;;5031445;28;20644;-92
2021/05/30 14:02:26;;;;;;;5.25;2.97;;;;;;;;;;5034104;28;20028;-89
2021/05/30 14:05:12;;;;;;;4.50;3.15;;;;;;;;;;5015287;28;20109;-89
2021/05/30 14:07:57;;;;;;;4.13;2.72;;;;;;;;;;5027089;28;20557;-89
2021/05/30 14:10:42;;;;;;;3.10;2.42;;;;;;;;;;5033685;28;20018;-89
2021/05/30 14:13:28;;;;;;;5.45;2.38;;;;;;;;;;5033421;28;20029;-89
2021/05/30 14:16:13;;;;;;;3.92;2.63;;;;;;;;;;5012801;28;20045;-89
2021/05/30 14:18:58;;;;;;;4.70;2.78;;;;;;;;;;5031930;28;20562;-89
2021/05/30 14:21:44;;;;;;;6.20;2.65;;;;;;;;;;5033990;28;20120;-88
2021/05/30 14:24:30;;;;;;;4.63;2.58;;;;;;;;;;5031354;28;20033;-88
2021/05/30 14:27:15;;;;;;;6.97;2.95;;;;;;;;;;5033160;28;20198;-89
2021/05/30 14:30:01;;;;;;;8.88;5.70;;;;;;;;;;5033127;28;20369;-89
2021/05/30 14:32:46;;;;;;;10.60;7.22;;;;;;;;;;5032169;28;20021;-89
2021/05/30 14:35:31;;;;;;;7.72;2.88;;;;;;;;;;5031704;28;20057;-89
2021/05/30 14:38:16;;;;;;;2.92;2.47;;;;;;;;;;5033329;28;20026;-90
2021/05/30 14:41:02;;;;;;;4.45;2.72;;;;;;;;;;5020198;28;20026;-90
2021/05/30 14:43:47;;;;;;;4.80;2.30;;;;;;;;;;5032843;28;20017;-90
2021/05/30 14:46:35;;;;;;;3.67;2.50;;;;;;;;;;5032962;28;20091;-89
2021/05/30 14:49:20;;;;;;;4.47;2.42;;;;;;;;;;5031287;28;20021;-89
2021/05/30 14:52:11;;;;;;;5.68;2.80;;;;;;;;;;5028866;28;20413;-83
2021/05/30 14:54:57;;;;;;;7.60;2.70;;;;;;;;;;5022893;28;20032;-82
2021/05/30 14:57:42;;;;;;;4.93;2.83;;;;;;;;;;5023932;28;20095;-83
2021/05/30 15:00:28;;;;;;;6.45;2.70;;;;;;;;;;5014419;28;20033;-84
2021/05/30 15:03:13;;;;;;;6.78;3.42;;;;;;;;;;5036921;28;20399;-86
2021/05/30 15:05:59;;;;;;;17.42;3.03;;;;;;;;;;5015230;28;20060;-83
2021/05/30 15:08:44;;;;;;;5.18;2.47;;;;;;;;;;5026006;28;20444;-84
2021/05/30 15:11:31;;;;;;;4.78;3.00;;;;;;;;;;5025938;28;20060;-89
2021/05/30 15:14:17;;;;;;;5.30;2.92;;;;;;;;;;5030091;28;20128;-86
2021/05/30 15:17:02;;;;;;;6.00;2.95;;;;;;;;;;5027377;28;20025;-85
2021/05/30 15:19:47;;;;;;;5.57;2.47;;;;;;;;;;5026682;28;20025;-84
2021/05/30 15:22:32;;;;;;;5.93;2.22;;;;;;;;;;5023243;28;20325;-85
2021/05/30 15:25:17;;;;;;;5.72;2.70;;;;;;;;;;5023215;28;20018;-84
2021/05/30 15:28:03;;;;;;;4.57;2.50;;;;;;;;;;5030216;28;20065;-84
2021/05/30 15:30:49;;;;;;;4.75;2.58;;;;;;;;;;5028214;28;20036;-86
2021/05/30 15:33:34;;;;;;;4.43;2.92;;;;;;;;;;5028094;28;20021;-85
2021/05/30 15:36:19;;;;;;;3.58;2.22;;;;;;;;;;5009696;28;20506;-85
2021/05/30 15:39:05;;;;;;;5.32;2.58;;;;;;;;;;5014989;28;20021;-85
2021/05/30 15:41:50;;;;;;;3.83;2.53;;;;;;;;;;5024970;28;20344;-85
2021/05/30 15:44:35;;;;;;;5.32;2.30;;;;;;;;;;5034294;28;20025;-86
2021/05/30 15:47:20;;;;;;;3.50;2.38;;;;;;;;;;5024161;28;20549;-84
2021/05/30 15:50:06;;;;;;;7.07;2.67;;;;;;;;;;5024739;28;20027;-87
2021/05/30 15:52:52;;;;;;;6.00;4.00;;;;;;;;;;5031399;28;20063;-87
2021/05/30 15:55:37;;;;;;;7.25;3.22;;;;;;;;;;5011786;28;20021;-85
2021/05/30 15:58:23;;;;;;;7.57;4.90;;;;;;;;;;5022553;28;20061;-85
2021/05/30 16:01:08;;;;;;;4.80;2.40;;;;;;;;;;5036434;28;20037;-87
2021/05/30 16:03:53;;;;;;;5.18;2.28;;;;;;;;;;5029616;28;20048;-90
2021/05/30 16:06:39;;;;;;;3.33;2.30;;;;;;;;;;5020218;28;20047;-91
2021/05/30 16:09:24;;;;;;;5.20;2.50;;;;;;;;;;5032463;28;20034;-90
2021/05/30 16:12:10;;;;;;;3.10;2.13;;;;;;;;;;5031318;28;20040;-89
2021/05/30 16:14:55;;;;;;;5.40;2.45;;;;;;;;;;5029708;28;20215;-89
2021/05/30 16:17:40;;;;;;;5.38;2.45;;;;;;;;;;5010453;28;20471;-89
2021/05/30 16:20:26;;;;;;;5.90;2.78;;;;;;;;;;5014970;28;20143;-89
2021/05/30 16:23:12;;;;;;;4.93;2.75;;;;;;;;;;5020204;28;20027;-89
2021/05/30 16:26:00;;;;;;;9.38;6.45;;;;;;;;;;5030196;28;20495;-89
2021/05/30 16:28:46;;;;;;;6.80;4.72;;;;;;;;;;5026982;28;20040;-88
2021/05/30 16:31:31;;;;;;;8.82;5.47;;;;;;;;;;5014463;28;20064;-89
2021/05/30 16:34:17;;;;;;;9.68;6.18;;;;;;;;;;5022834;28;20510;-90
2021/05/30 16:37:02;;;;;;;7.28;3.83;;;;;;;;;;5022350;28;20082;-89
2021/05/30 16:39:50;;;;;;;4.72;3.08;;;;;;;;;;5028984;28;20037;-88
2021/05/30 16:42:36;;;;;;;6.07;2.90;;;;;;;;;;5026167;28;20032;-89